Time;durP1;ratioP1;P1;durP2;ratioP2;P2;SDS_P1;SDS_P2;PMS_P1;PMS_P2;Temp;Humidity;BMP_temperature;BMP_pressure;BME280_temperature;BME280_humidity;BME280_pressure;Samples;Min_cycle;Max_cycle;Signal;HPM_P1;HPM_P2
2022/11/27 00:00:06;;;;;;;43.20;29.73;;;;;;;2.10;77.24;95565.75;4160757;28;20088;-52
2022/11/27 00:02:07;;;;;;;41.83;28.35;;;;;;;2.13;76.37;95561.25;4148617;28;20137;-50
2022/11/27 00:04:10;;;;;;;42.00;28.48;;;;;;;2.23;76.74;95561.56;4160968;28;20116;-55
2022/11/27 00:06:14;;;;;;;42.17;28.25;;;;;;;2.30;76.20;95569.78;4148888;28;20498;-52
2022/11/27 00:08:16;;;;;;;;;;;;;;;2.39;75.56;95567.53;4146204;28;20221;-51
2022/11/27 00:10:18;;;;;;;42.15;28.27;;;;;;;2.36;75.49;95567.69;4161329;28;19944;-49
2022/11/27 00:12:19;;;;;;;37.92;28.33;;;;;;;2.42;75.61;95572.50;4153255;28;20512;-54
2022/11/27 00:14:21;;;;;;;42.10;27.30;;;;;;;2.40;75.59;95566.59;4156385;28;20089;-53
2022/11/27 00:16:24;;;;;;;40.10;28.63;;;;;;;2.41;75.61;95563.09;4157855;28;20092;-51
2022/11/27 00:18:26;;;;;;;37.67;28.45;;;;;;;2.40;75.32;95564.00;4160586;28;20059;-53
2022/11/27 00:20:28;;;;;;;38.13;26.40;;;;;;;2.40;75.78;95561.41;4157223;28;20054;-55
2022/11/27 00:22:30;;;;;;;38.78;26.35;;;;;;;2.41;75.79;95565.69;4155225;28;20048;-50
2022/11/27 00:24:32;;;;;;;40.13;26.98;;;;;;;2.52;75.81;95566.78;4153133;28;20057;-54
2022/11/27 00:26:34;;;;;;;35.45;25.50;;;;;;;2.62;75.25;95571.38;4148784;28;20057;-53
2022/11/27 00:28:39;;;;;;;34.08;24.33;;;;;;;2.58;74.84;95571.63;4145935;28;20045;-55
2022/11/27 00:30:40;;;;;;;34.10;22.88;;;;;;;2.46;74.55;95574.00;4166619;28;20250;-54
2022/11/27 00:32:42;;;;;;;31.77;22.58;;;;;;;2.40;74.46;95574.34;4157264;28;20407;-53
2022/11/27 00:34:44;;;;;;;32.88;22.92;;;;;;;2.35;74.40;95586.72;4170483;28;20045;-51
2022/11/27 00:36:45;;;;;;;34.17;23.77;;;;;;;2.35;74.78;95583.31;4151359;28;20445;-51
2022/11/27 00:38:49;;;;;;;34.10;22.67;;;;;;;2.37;74.62;95589.22;4168840;28;20143;-50
2022/11/27 00:40:50;;;;;;;34.00;23.77;;;;;;;2.44;74.73;95585.34;4176770;28;20055;-53
2022/11/27 00:42:52;;;;;;;33.83;23.38;;;;;;;2.51;74.24;95578.91;4176598;28;20130;-54
2022/11/27 00:44:53;;;;;;;38.80;24.30;;;;;;;2.56;74.32;95581.22;4176156;28;20045;-51
2022/11/27 00:46:55;;;;;;;33.22;23.30;;;;;;;2.59;73.90;95581.88;4177002;28;20424;-53
2022/11/27 00:48:58;;;;;;;32.47;23.75;;;;;;;2.52;73.67;95587.50;4176407;28;20053;-52
2022/11/27 00:51:05;;;;;;;35.70;24.47;;;;;;;2.48;74.49;95581.69;4177033;28;20049;-50
2022/11/27 00:53:07;;;;;;;39.72;26.23;;;;;;;2.52;74.19;95588.34;4176741;28;20083;-53
2022/11/27 00:55:09;;;;;;;36.25;23.73;;;;;;;2.59;74.07;95594.00;4171494;28;20045;-54
2022/11/27 00:57:10;;;;;;;35.72;24.83;;;;;;;2.63;73.93;95585.97;4179273;28;20076;-51
2022/11/27 00:59:12;;;;;;;34.42;24.60;;;;;;;2.72;73.76;95586.34;4178205;28;20498;-50
2022/11/27 01:01:20;;;;;;;36.22;25.55;;;;;;;2.78;73.54;95586.81;4179355;28;20481;-53
2022/11/27 01:03:23;;;;;;;38.00;25.67;;;;;;;2.73;73.00;95588.88;4164583;28;20068;-50
2022/11/27 01:05:24;;;;;;;34.20;24.85;;;;;;;2.57;73.53;95585.50;4179447;28;20055;-51
2022/11/27 01:07:26;;;;;;;42.55;26.15;;;;;;;2.61;74.20;95590.38;4179615;28;20102;-53
2022/11/27 01:09:28;;;;;;;41.10;26.42;;;;;;;2.64;73.89;95586.78;4177707;28;20136;-53
2022/11/27 01:11:31;;;;;;;37.22;25.77;;;;;;;2.67;73.93;95586.63;4162598;28;20053;-55
2022/11/27 01:13:34;;;;;;;37.63;25.50;;;;;;;2.75;74.07;95586.16;4177313;28;20083;-50
2022/11/27 01:15:36;;;;;;;42.00;24.80;;;;;;;2.78;73.25;95581.66;4169534;28;20069;-51
2022/11/27 01:17:38;;;;;;;39.15;26.30;;;;;;;2.78;73.23;95573.88;4171708;28;20289;-53
2022/11/27 01:19:40;;;;;;;39.25;26.15;;;;;;;2.85;73.64;95569.19;4167801;28;20053;-54
2022/11/27 01:21:42;;;;;;;39.05;25.40;;;;;;;2.87;73.17;95575.94;4164623;28;20133;-53
2022/11/27 01:23:44;;;;;;;37.08;26.83;;;;;;;3.01;73.33;95561.31;4178253;28;20052;-53
2022/11/27 01:25:46;;;;;;;37.15;26.10;;;;;;;2.77;72.65;95568.78;4179693;28;20068;-57
2022/11/27 01:27:47;;;;;;;42.45;26.42;;;;;;;2.66;73.47;95565.06;4179200;28;20045;-54
2022/11/27 01:29:49;;;;;;;37.65;27.08;;;;;;;2.72;73.95;95565.66;4178339;28;20107;-54
2022/11/27 01:31:51;;;;;;;41.53;27.65;;;;;;;2.82;73.46;95557.25;4165888;28;20452;-51
2022/11/27 01:33:56;;;;;;;42.63;26.85;;;;;;;2.93;72.77;95559.22;4179276;28;20456;-54
2022/11/27 01:36:00;;;;;;;41.25;25.95;;;;;;;2.99;72.73;95551.09;4179371;28;20409;-49
2022/11/27 01:38:03;;;;;;;41.17;26.30;;;;;;;3.11;72.19;95551.25;4167392;28;20058;-51
2022/11/27 01:40:05;;;;;;;35.35;25.73;;;;;;;3.12;72.15;95551.19;4154279;28;20118;-50
2022/11/27 01:42:09;;;;;;;35.40;24.40;;;;;;;3.00;71.77;95551.91;4152094;28;20050;-54
2022/11/27 01:44:23;;;;;;;33.30;23.80;;;;;;;2.63;72.92;95551.50;4174548;28;20064;-53
2022/11/27 01:46:48;;;;;;;36.45;24.40;;;;;;;2.13;75.23;95555.22;4178664;28;20041;-54
2022/11/27 01:48:51;;;;;;;37.70;26.08;;;;;;;1.95;75.77;95550.19;4177669;28;20174;-55
2022/11/27 01:50:53;;;;;;;39.88;27.73;;;;;;;1.97;76.67;95544.94;4177720;28;20064;-54
2022/11/27 01:53:01;;;;;;;40.65;27.17;;;;;;;1.98;76.57;95550.03;4179167;28;20186;-54
2022/11/27 01:55:28;;;;;;;37.08;26.35;;;;;;;2.09;76.40;95553.72;4173258;28;20046;-49
2022/11/27 01:57:34;;;;;;;39.85;27.17;;;;;;;2.23;76.53;95541.69;4155765;28;20137;-50
2022/11/27 01:59:36;;;;;;;40.45;27.02;;;;;;;2.31;75.49;95538.69;4178035;28;20527;-51
2022/11/27 02:01:38;;;;;;;41.25;27.35;;;;;;;2.43;75.29;95545.75;4176539;28;20048;-54
2022/11/27 02:03:40;;;;;;;42.47;28.05;;;;;;;2.52;74.95;95540.94;4149645;28;20057;-53
2022/11/27 02:05:42;;;;;;;37.92;26.42;;;;;;;2.57;74.30;95544.94;4169647;28;20449;-53
2022/11/27 02:07:44;;;;;;;37.80;26.75;;;;;;;2.65;74.42;95547.06;4178136;28;20131;-51
2022/11/27 02:09:46;;;;;;;38.90;27.00;;;;;;;2.61;74.31;95546.41;4177634;28;20528;-50
2022/11/27 02:12:04;;;;;;;39.15;26.77;;;;;;;2.55;74.28;95546.78;4161391;28;20139;-53
2022/11/27 02:14:36;;;;;;;39.58;26.90;;;;;;;2.43;74.86;95545.75;4175779;28;20064;-51
2022/11/27 02:16:39;;;;;;;42.53;28.88;;;;;;;2.23;75.37;95543.44;4156765;28;20049;-53
2022/11/27 02:19:04;;;;;;;44.33;28.83;;;;;;;2.21;76.13;95550.47;4158924;28;20068;-53
2022/11/27 02:21:11;;;;;;;42.22;28.25;;;;;;;2.32;76.40;95547.25;4156312;28;20588;-54
2022/11/27 02:23:22;;;;;;;39.10;25.65;;;;;;;2.37;75.94;95550.44;4162061;28;20059;-51
2022/11/27 02:25:55;;;;;;;40.40;27.60;;;;;;;2.48;75.94;95548.06;4146296;28;20465;-53
2022/11/27 02:28:09;;;;;;;38.95;27.00;;;;;;;2.56;75.36;95543.28;4149179;28;20053;-50
2022/11/27 02:30:11;;;;;;;;;;;;;;;2.60;74.95;95549.94;4146926;28;20058;-50
2022/11/27 02:32:18;;;;;;;40.03;27.38;;;;;;;2.55;74.96;95556.28;4163018;28;20023;-50
2022/11/27 02:34:42;;;;;;;40.38;26.98;;;;;;;2.44;75.42;95551.75;4158547;28;20069;-51
2022/11/27 02:36:52;;;;;;;46.13;28.47;;;;;;;2.36;75.49;95552.16;4152779;28;20110;-51
2022/11/27 02:39:17;;;;;;;38.80;26.52;;;;;;;2.49;75.80;95554.06;4171055;28;20081;-50
2022/11/27 02:41:53;;;;;;;41.47;29.23;;;;;;;2.25;75.79;95555.38;4177960;28;20045;-50
2022/11/27 02:43:56;;;;;;;47.38;29.67;;;;;;;2.27;76.18;95557.06;4156714;28;20061;-55
2022/11/27 02:45:58;;;;;;;39.92;26.30;;;;;;;2.26;76.40;95561.41;4147325;28;20050;-51
2022/11/27 02:48:00;;;;;;;40.45;26.75;;;;;;;2.32;75.99;95561.03;4161659;28;20091;-52
2022/11/27 02:50:02;;;;;;;40.58;26.98;;;;;;;2.28;75.89;95567.31;4161930;28;20049;-51
2022/11/27 02:52:05;;;;;;;40.72;27.10;;;;;;;2.32;76.46;95561.03;4159706;28;20085;-54
2022/11/27 02:54:09;;;;;;;45.58;28.85;;;;;;;2.39;75.90;95561.53;4154642;28;20064;-56
2022/11/27 02:56:15;;;;;;;42.35;28.10;;;;;;;2.37;75.91;95558.19;4160124;28;20065;-52
2022/11/27 02:58:21;;;;;;;42.25;29.20;;;;;;;2.46;76.05;95561.06;4164448;28;20049;-54
2022/11/27 03:00:23;;;;;;;39.42;26.75;;;;;;;2.55;76.08;95561.47;4153658;28;20391;-51
2022/11/27 03:02:32;;;;;;;40.22;26.00;;;;;;;2.72;75.65;95558.72;4160537;28;20128;-51
2022/11/27 03:04:50;;;;;;;41.40;26.67;;;;;;;2.84;74.69;95552.00;4163217;28;20103;-55
2022/11/27 03:06:57;;;;;;;37.95;25.63;;;;;;;2.90;74.47;95554.19;4153627;28;20084;-52
2022/11/27 03:09:06;;;;;;;39.03;24.80;;;;;;;2.93;74.16;95564.38;4155527;28;20411;-52
2022/11/27 03:11:10;;;;;;;39.67;26.60;;;;;;;2.94;73.97;95570.38;4159888;28;20045;-54
2022/11/27 03:13:11;;;;;;;;;;;;;;;2.85;73.60;95575.19;4152277;28;20057;-54
2022/11/27 03:15:13;;;;;;;37.38;25.92;;;;;;;2.44;75.00;95570.66;4156484;28;19921;-52
2022/11/27 03:17:49;;;;;;;38.88;24.73;;;;;;;2.27;75.63;95575.16;4147548;28;20053;-54
2022/11/27 03:19:55;;;;;;;40.83;27.17;;;;;;;2.27;76.14;95569.97;4150288;28;20112;-56
2022/11/27 03:21:59;;;;;;;42.50;26.80;;;;;;;2.11;76.72;95576.03;4171227;28;20053;-48
2022/11/27 03:24:01;;;;;;;38.83;26.15;;;;;;;2.02;77.14;95577.38;4168424;28;20101;-52
2022/11/27 03:26:03;;;;;;;44.70;28.92;;;;;;;1.91;77.78;95584.84;4159481;28;20126;-50
2022/11/27 03:28:07;;;;;;;39.03;25.48;;;;;;;1.79;78.25;95578.63;4171418;28;20045;-49
2022/11/27 03:30:10;;;;;;;39.70;26.77;;;;;;;1.96;78.35;95577.69;4159453;28;20163;-51
2022/11/27 03:32:11;;;;;;;46.30;28.77;;;;;;;2.17;77.97;95577.41;4150444;28;20056;-53
2022/11/27 03:34:15;;;;;;;39.80;26.50;;;;;;;2.33;76.85;95565.28;4172394;28;20053;-53
2022/11/27 03:36:18;;;;;;;39.13;26.20;;;;;;;2.24;75.99;95569.22;4149691;28;20432;-57
2022/11/27 03:38:20;;;;;;;37.53;25.02;;;;;;;2.28;76.47;95572.47;4165638;28;20107;-54
2022/11/27 03:40:29;;;;;;;39.83;27.38;;;;;;;2.15;76.56;95571.50;4173994;28;20045;-54
2022/11/27 03:42:57;;;;;;;38.67;27.08;;;;;;;2.01;76.65;95567.94;4170069;28;20636;-53
2022/11/27 03:44:58;;;;;;;37.88;26.48;;;;;;;1.96;77.33;95566.53;4174203;28;20048;-51
2022/11/27 03:47:20;;;;;;;42.17;27.88;;;;;;;1.61;78.18;95572.72;4175221;28;20053;-51
2022/11/27 03:49:36;;;;;;;38.47;26.35;;;;;;;1.77;78.71;95569.31;4162844;28;20144;-53
2022/11/27 03:51:42;;;;;;;42.10;27.60;;;;;;;1.67;78.12;95574.13;4174156;28;20139;-50
2022/11/27 03:54:16;;;;;;;43.30;27.48;;;;;;;1.55;78.52;95567.03;4171898;28;20531;-53
2022/11/27 03:57:12;;;;;;;34.78;24.70;;;;;;;1.17;80.20;95575.91;4169619;28;20102;-52
2022/11/27 03:59:19;;;;;;;40.53;26.50;;;;;;;1.22;80.17;95563.59;4153184;28;20147;-51
2022/11/27 04:01:23;;;;;;;38.47;26.05;;;;;;;0.91;81.13;95563.53;4172823;28;20496;-53
2022/11/27 04:03:27;;;;;;;40.08;26.00;;;;;;;0.79;81.83;95558.09;4159383;28;20046;-52
2022/11/27 04:05:29;;;;;;;44.42;30.00;;;;;;;0.74;82.52;95567.81;4160858;28;20500;-51
2022/11/27 04:07:31;;;;;;;40.83;28.42;;;;;;;0.86;82.17;95562.94;4160859;28;20053;-51
2022/11/27 04:09:33;;;;;;;42.65;28.50;;;;;;;0.92;82.09;95567.78;4160652;28;20061;-49
2022/11/27 04:11:35;;;;;;;47.20;30.70;;;;;;;0.98;81.50;95557.16;4155543;28;20466;-53
2022/11/27 04:13:37;;;;;;;45.33;30.00;;;;;;;0.95;82.12;95547.81;4176251;28;20088;-51
2022/11/27 04:15:38;;;;;;;45.75;30.38;;;;;;;0.99;81.86;95553.63;4169352;28;20492;-54
2022/11/27 04:17:40;;;;;;;45.22;31.90;;;;;;;1.00;81.28;95553.56;4172193;28;20424;-49
2022/11/27 04:19:41;;;;;;;49.80;31.63;;;;;;;1.06;81.86;95555.00;4148846;28;20469;-54
2022/11/27 04:21:43;;;;;;;44.55;31.83;;;;;;;1.34;81.90;95558.72;4160481;28;20133;-49
2022/11/27 04:23:45;;;;;;;47.53;32.33;;;;;;;1.53;80.82;95561.97;4152196;28;20050;-51
2022/11/27 04:25:47;;;;;;;41.75;30.15;;;;;;;1.46;79.30;95554.63;4156367;28;20260;-52
2022/11/27 04:27:49;;;;;;;49.72;31.85;;;;;;;1.43;79.72;95553.06;4147421;28;20066;-51
2022/11/27 04:29:51;;;;;;;49.22;31.92;;;;;;;1.47;79.88;95557.13;4159123;28;20065;-53
2022/11/27 04:31:53;;;;;;;46.13;32.10;;;;;;;1.61;80.21;95552.06;4166896;28;20063;-54
2022/11/27 04:33:55;;;;;;;46.38;32.72;;;;;;;1.77;78.95;95554.63;4161285;28;20256;-56
2022/11/27 04:35:57;;;;;;;50.40;32.72;;;;;;;1.50;79.29;95556.97;4175253;28;20467;-53
2022/11/27 04:37:58;;;;;;;45.10;29.88;;;;;;;1.56;79.64;95555.81;4148421;28;20437;-52
2022/11/27 04:40:00;;;;;;;45.83;30.15;;;;;;;1.18;80.32;95569.84;4163132;28;20556;-50
2022/11/27 04:42:02;;;;;;;48.15;32.15;;;;;;;1.27;80.82;95575.41;4153001;28;20557;-49
2022/11/27 04:44:04;;;;;;;50.38;32.97;;;;;;;1.23;80.44;95572.19;4147564;28;20171;-51
2022/11/27 04:46:06;;;;;;;47.78;32.25;;;;;;;1.22;80.81;95579.06;4148569;28;20067;-54
2022/11/27 04:48:08;;;;;;;45.05;32.08;;;;;;;1.12;81.41;95569.31;4162811;28;20092;-53
2022/11/27 04:50:09;;;;;;;48.38;33.33;;;;;;;1.10;81.86;95571.13;4152584;28;20128;-52
2022/11/27 04:52:11;;;;;;;52.42;35.17;;;;;;;1.08;81.38;95570.41;4162333;28;20566;-52
2022/11/27 04:54:13;;;;;;;50.47;34.13;;;;;;;1.13;81.34;95579.56;4153397;28;20041;-53
2022/11/27 04:56:14;;;;;;;53.72;36.28;;;;;;;1.23;81.22;95585.09;4154233;28;20064;-58
2022/11/27 04:58:16;;;;;;;53.17;35.95;;;;;;;1.34;81.58;95579.38;4148966;28;20662;-55
2022/11/27 05:00:18;;;;;;;58.40;37.55;;;;;;;1.37;80.43;95577.44;4150183;28;20212;-52
2022/11/27 05:02:20;;;;;;;53.00;35.55;;;;;;;1.43;80.35;95576.28;4163395;28;20068;-51
2022/11/27 05:04:22;;;;;;;50.97;32.72;;;;;;;1.42;80.25;95572.88;4160152;28;20053;-51
2022/11/27 05:06:24;;;;;;;49.95;32.42;;;;;;;1.31;80.32;95571.78;4170414;28;20049;-50
2022/11/27 05:08:29;;;;;;;53.47;35.13;;;;;;;1.29;81.46;95569.28;4160481;28;20053;-50
2022/11/27 05:10:31;;;;;;;49.70;33.55;;;;;;;1.21;80.98;95558.53;4162458;28;20057;-53
2022/11/27 05:12:32;;;;;;;48.55;32.47;;;;;;;1.16;80.79;95561.34;4144047;28;20056;-52
2022/11/27 05:14:34;;;;;;;57.22;35.13;;;;;;;1.28;81.31;95571.94;4169741;28;20049;-50
2022/11/27 05:16:36;;;;;;;61.05;37.30;;;;;;;1.21;80.79;95572.25;4180097;28;20468;-53
2022/11/27 05:18:37;;;;;;;54.67;37.53;;;;;;;1.25;80.75;95574.66;4182333;28;20044;-53
2022/11/27 05:20:39;;;;;;;55.95;37.58;;;;;;;1.22;80.94;95566.16;4183801;28;20064;-53
2022/11/27 05:22:43;;;;;;;59.40;38.63;;;;;;;1.33;81.04;95572.53;4184293;28;20093;-53
2022/11/27 05:24:44;;;;;;;54.72;38.58;;;;;;;1.43;80.89;95574.53;4157723;28;20076;-53
2022/11/27 05:26:46;;;;;;;59.47;38.17;;;;;;;1.63;80.54;95577.78;4178079;28;20103;-54
2022/11/27 05:28:48;;;;;;;61.25;39.92;;;;;;;1.72;80.18;95582.47;4174015;28;20052;-50
2022/11/27 05:30:50;;;;;;;56.47;38.22;;;;;;;1.81;79.30;95575.97;4162610;28;20108;-54
2022/11/27 05:32:51;;;;;;;58.10;38.10;;;;;;;1.61;78.92;95582.19;4175150;28;20076;-56
2022/11/27 05:34:53;;;;;;;55.58;36.85;;;;;;;1.22;80.30;95588.56;4168462;28;20048;-52
2022/11/27 05:36:55;;;;;;;58.95;38.72;;;;;;;1.17;80.33;95583.66;4170293;28;20053;-51
2022/11/27 05:38:56;;;;;;;60.17;39.40;;;;;;;1.22;80.97;95578.25;4161152;28;20133;-53
2022/11/27 05:40:58;;;;;;;63.33;41.53;;;;;;;1.30;81.33;95578.69;4153370;28;20497;-48
2022/11/27 05:43:00;;;;;;;56.53;39.05;;;;;;;1.49;80.95;95586.28;4166390;28;20049;-52
2022/11/27 05:45:01;;;;;;;59.85;39.83;;;;;;;1.58;79.75;95590.94;4170044;28;20520;-49
2022/11/27 05:47:03;;;;;;;60.25;39.05;;;;;;;1.35;80.38;95594.75;4162574;28;20508;-51
2022/11/27 05:49:05;;;;;;;56.60;37.78;;;;;;;1.07;81.01;95582.47;4147881;28;20491;-51
2022/11/27 05:51:07;;;;;;;64.50;39.65;;;;;;;1.29;81.06;95583.91;4152636;28;20151;-52
2022/11/27 05:53:09;;;;;;;62.97;40.50;;;;;;;1.29;80.93;95584.78;4153744;28;20049;-51
2022/11/27 05:55:11;;;;;;;66.47;40.53;;;;;;;1.31;81.12;95592.41;4159648;28;20524;-56
2022/11/27 05:57:13;;;;;;;59.72;39.20;;;;;;;1.41;80.68;95584.09;4160156;28;20057;-52
2022/11/27 05:59:14;;;;;;;64.88;40.40;;;;;;;1.46;80.44;95590.78;4145579;28;20368;-53
2022/11/27 06:01:17;;;;;;;66.05;40.78;;;;;;;1.52;80.15;95595.63;4155860;28;20133;-53
2022/11/27 06:03:18;;;;;;;56.40;37.95;;;;;;;1.61;80.39;95595.97;4162475;28;20137;-54
2022/11/27 06:05:20;;;;;;;55.97;38.50;;;;;;;1.57;79.80;95603.94;4149507;28;20103;-53
2022/11/27 06:07:22;;;;;;;64.35;40.08;;;;;;;1.69;80.25;95612.78;4156640;28;20050;-55
2022/11/27 06:09:24;;;;;;;59.50;37.13;;;;;;;1.87;79.38;95611.78;4155373;28;20069;-53
2022/11/27 06:11:26;;;;;;;53.75;35.08;;;;;;;1.81;79.07;95601.81;4162120;28;20102;-56
2022/11/27 06:13:27;;;;;;;53.72;34.50;;;;;;;1.94;79.35;95599.38;4157637;28;20054;-51
2022/11/27 06:15:29;;;;;;;53.40;34.92;;;;;;;1.91;78.43;95594.38;4159072;28;20110;-51
2022/11/27 06:17:31;;;;;;;57.28;34.50;;;;;;;1.78;78.94;95591.63;4159193;28;20081;-54
2022/11/27 06:19:33;;;;;;;59.33;36.15;;;;;;;1.94;79.30;95599.38;4158882;28;20477;-55
2022/11/27 06:21:34;;;;;;;55.95;35.25;;;;;;;2.09;79.09;95598.53;4158138;28;20101;-55
2022/11/27 06:23:36;;;;;;;49.50;30.45;;;;;;;2.12;77.76;95600.94;4145378;28;20050;-55
2022/11/27 06:25:38;;;;;;;45.58;29.73;;;;;;;1.88;78.06;95612.63;4156384;28;20591;-53
2022/11/27 06:27:40;;;;;;;49.05;31.58;;;;;;;1.84;79.08;95605.03;4148883;28;20104;-54
2022/11/27 06:29:41;;;;;;;48.08;31.13;;;;;;;1.94;79.32;95597.63;4177248;28;20063;-52
2022/11/27 06:31:43;;;;;;;54.58;33.75;;;;;;;2.08;78.70;95598.59;4161578;28;20064;-54
2022/11/27 06:33:49;;;;;;;48.92;30.67;;;;;;;2.07;78.19;95595.19;4156712;28;20438;-52
2022/11/27 06:35:54;;;;;;;47.30;29.38;;;;;;;2.11;77.97;95603.59;4159743;28;20092;-52
2022/11/27 06:37:55;;;;;;;49.33;30.95;;;;;;;2.16;78.00;95601.59;4172782;28;20428;-53
2022/11/27 06:39:57;;;;;;;47.10;29.58;;;;;;;2.13;78.22;95604.34;4172618;28;20049;-55
2022/11/27 06:41:59;;;;;;;45.38;29.48;;;;;;;2.18;77.97;95604.94;4169321;28;20045;-52
2022/11/27 06:44:01;;;;;;;45.58;30.02;;;;;;;2.17;78.21;95603.25;4167424;28;20141;-52
2022/11/27 06:46:04;;;;;;;46.75;31.00;;;;;;;2.09;77.59;95614.03;4163011;28;20041;-54
2022/11/27 06:48:06;;;;;;;48.45;31.75;;;;;;;2.06;77.90;95611.59;4173684;28;20059;-52
2022/11/27 06:50:08;;;;;;;46.40;30.90;;;;;;;1.94;78.19;95617.47;4175422;28;20057;-51
2022/11/27 06:52:09;;;;;;;43.50;29.63;;;;;;;1.70;78.79;95611.88;4170509;28;20526;-52
2022/11/27 06:54:11;;;;;;;44.35;30.85;;;;;;;1.71;79.25;95614.38;4172182;28;20463;-52
2022/11/27 06:56:16;;;;;;;49.20;32.42;;;;;;;1.74;79.30;95605.63;4172616;28;20044;-52
2022/11/27 06:58:17;;;;;;;47.78;30.85;;;;;;;1.89;79.46;95604.78;4170331;28;20125;-55
2022/11/27 07:00:19;;;;;;;52.63;33.33;;;;;;;2.02;79.03;95604.94;4162464;28;20080;-53
2022/11/27 07:02:21;;;;;;;49.47;32.38;;;;;;;2.20;78.89;95609.09;4171384;28;20057;-57
2022/11/27 07:04:23;;;;;;;53.40;32.97;;;;;;;2.41;77.81;95603.63;4168565;28;20056;-52
2022/11/27 07:06:26;;;;;;;57.95;33.60;;;;;;;2.24;77.34;95605.44;4166758;28;20115;-52
2022/11/27 07:08:28;;;;;;;48.08;30.15;;;;;;;2.27;77.78;95601.81;4173527;28;20057;-51
2022/11/27 07:10:32;;;;;;;48.95;30.98;;;;;;;2.22;76.85;95603.84;4160061;28;20569;-54
2022/11/27 07:12:34;;;;;;;51.60;30.75;;;;;;;2.22;76.95;95598.69;4152194;28;20399;-52
2022/11/27 07:14:36;;;;;;;45.40;29.42;;;;;;;2.30;77.35;95596.47;4144570;28;20077;-52
2022/11/27 07:16:38;;;;;;;52.65;32.53;;;;;;;2.28;76.60;95598.34;4148671;28;20421;-53
2022/11/27 07:18:42;;;;;;;53.10;31.52;;;;;;;2.43;76.72;95597.47;4162813;28;20132;-53
2022/11/27 07:20:49;;;;;;;;;;;;;;;2.59;76.39;95594.81;4170089;28;20501;-53
2022/11/27 07:22:56;;;;;;;53.17;32.40;;;;;;;2.60;75.61;95595.66;4175050;28;19978;-51
2022/11/27 07:24:58;;;;;;;45.08;29.45;;;;;;;2.69;75.43;95592.53;4174920;28;20049;-50
2022/11/27 07:27:00;;;;;;;49.25;31.25;;;;;;;2.66;74.82;95598.72;4175134;28;20061;-53
2022/11/27 07:29:01;;;;;;;48.47;29.65;;;;;;;2.49;74.98;95591.09;4173592;28;20052;-53
2022/11/27 07:31:04;;;;;;;47.67;29.95;;;;;;;2.32;75.20;95601.56;4172964;28;20114;-52
2022/11/27 07:33:05;;;;;;;45.75;30.75;;;;;;;2.29;75.43;95597.41;4176406;28;20464;-55
2022/11/27 07:35:08;;;;;;;44.17;29.92;;;;;;;2.20;76.10;95597.94;4158566;28;20089;-56
2022/11/27 07:37:09;;;;;;;44.10;29.52;;;;;;;2.22;76.88;95596.09;4167869;28;20072;-53
2022/11/27 07:39:11;;;;;;;45.42;31.38;;;;;;;2.36;76.39;95593.53;4159746;28;20443;-51
2022/11/27 07:41:14;;;;;;;55.35;32.05;;;;;;;2.45;75.41;95585.28;4168138;28;20053;-50
2022/11/27 07:43:15;;;;;;;52.35;30.83;;;;;;;2.55;75.53;95587.34;4167083;28;20091;-53
2022/11/27 07:45:17;;;;;;;45.78;31.08;;;;;;;2.51;74.95;95588.41;4176922;28;20459;-54
2022/11/27 07:47:19;;;;;;;50.90;32.80;;;;;;;2.49;75.36;95590.25;4177412;28;20127;-53
2022/11/27 07:49:20;;;;;;;50.58;32.85;;;;;;;2.62;75.34;95594.66;4177836;28;20049;-53
2022/11/27 07:51:22;;;;;;;47.67;30.33;;;;;;;2.81;75.12;95593.56;4177465;28;20451;-51
2022/11/27 07:53:24;;;;;;;52.25;32.53;;;;;;;2.94;74.25;95583.34;4177849;28;20124;-52
2022/11/27 07:55:25;;;;;;;49.35;30.80;;;;;;;3.01;73.56;95585.47;4176993;28;20103;-55
2022/11/27 07:57:27;;;;;;;45.70;30.83;;;;;;;3.01;73.00;95585.47;4175897;28;20041;-55
2022/11/27 07:59:29;;;;;;;50.33;31.80;;;;;;;3.07;73.33;95582.50;4175756;28;20057;-50
2022/11/27 08:01:30;;;;;;;52.65;31.10;;;;;;;3.18;73.35;95581.84;4177094;28;20165;-52
2022/11/27 08:03:32;;;;;;;49.13;32.92;;;;;;;3.24;72.77;95585.84;4165613;28;20049;-54
2022/11/27 08:05:35;;;;;;;48.55;32.42;;;;;;;3.34;73.11;95580.94;4176132;28;20044;-56
2022/11/27 08:07:37;;;;;;;55.92;35.10;;;;;;;3.41;72.45;95587.41;4176794;28;20164;-52
2022/11/27 08:09:39;;;;;;;50.03;33.45;;;;;;;3.47;71.97;95587.03;4164338;28;20425;-53
2022/11/27 08:11:40;;;;;;;50.83;33.13;;;;;;;3.51;72.02;95592.84;4150882;28;20153;-53
2022/11/27 08:13:42;;;;;;;50.85;32.03;;;;;;;3.64;72.27;95592.00;4159204;28;20124;-52
2022/11/27 08:15:44;;;;;;;50.50;33.38;;;;;;;3.76;72.60;95587.00;4151519;28;20133;-54
2022/11/27 08:17:46;;;;;;;56.88;34.95;;;;;;;3.81;71.14;95590.16;4156852;28;20152;-54
2022/11/27 08:19:48;;;;;;;50.47;32.10;;;;;;;3.43;70.61;95594.16;4161161;28;20049;-53
2022/11/27 08:21:50;;;;;;;53.42;33.20;;;;;;;3.20;72.09;95585.19;4155068;28;20170;-51
2022/11/27 08:23:51;;;;;;;53.08;32.42;;;;;;;3.07;72.43;95590.25;4154379;28;20052;-55
2022/11/27 08:25:53;;;;;;;53.38;32.60;;;;;;;3.04;72.61;95592.22;4161128;28;20061;-52
2022/11/27 08:27:55;;;;;;;46.83;31.63;;;;;;;2.90;72.96;95594.78;4159722;28;20053;-55
2022/11/27 08:29:56;;;;;;;54.53;34.08;;;;;;;2.94;73.01;95588.50;4159814;28;20524;-54
2022/11/27 08:31:58;;;;;;;54.03;35.55;;;;;;;2.76;73.53;95591.25;4160668;28;20085;-53
2022/11/27 08:34:00;;;;;;;55.90;37.17;;;;;;;2.83;73.84;95586.56;4160446;28;20132;-56
2022/11/27 08:36:02;;;;;;;55.80;35.45;;;;;;;2.93;73.88;95584.28;4161266;28;20496;-54
2022/11/27 08:38:04;;;;;;;55.55;35.08;;;;;;;3.11;73.28;95579.75;4164222;28;20053;-59
2022/11/27 08:40:06;;;;;;;56.72;35.80;;;;;;;3.24;73.01;95576.31;4151903;28;20049;-55
2022/11/27 08:42:08;;;;;;;55.22;36.42;;;;;;;3.38;72.75;95578.06;4163697;28;20084;-54
2022/11/27 08:44:10;;;;;;;53.42;33.60;;;;;;;3.47;72.45;95579.28;4160595;28;20072;-54
2022/11/27 08:46:11;;;;;;;51.35;33.97;;;;;;;3.60;71.88;95579.34;4152139;28;20058;-55
2022/11/27 08:48:13;;;;;;;50.95;34.92;;;;;;;3.75;71.70;95574.97;4163926;28;20143;-56
2022/11/27 08:50:15;;;;;;;51.30;33.60;;;;;;;3.87;70.79;95571.59;4156881;28;20414;-51
2022/11/27 08:52:17;;;;;;;51.72;33.28;;;;;;;4.06;70.79;95568.66;4156024;28;20471;-56
2022/11/27 08:54:18;;;;;;;49.05;32.22;;;;;;;4.21;69.60;95566.84;4158737;28;20158;-55
2022/11/27 08:56:24;;;;;;;48.75;32.33;;;;;;;4.10;69.31;95565.78;4160126;28;20057;-54
2022/11/27 08:58:25;;;;;;;51.28;31.85;;;;;;;3.96;69.10;95562.41;4162316;28;20657;-53
2022/11/27 09:00:27;;;;;;;47.70;30.85;;;;;;;3.92;69.65;95563.56;4153897;28;20394;-51
2022/11/27 09:02:29;;;;;;;48.55;31.85;;;;;;;3.86;70.46;95564.75;4160191;28;20061;-56
2022/11/27 09:04:31;;;;;;;44.53;29.13;;;;;;;3.76;70.07;95561.91;4169536;28;20083;-55
2022/11/27 09:06:36;;;;;;;44.78;29.85;;;;;;;3.86;69.99;95563.00;4176750;28;20134;-54
2022/11/27 09:08:39;;;;;;;53.20;31.85;;;;;;;3.74;70.41;95562.94;4172876;28;20069;-56
2022/11/27 09:10:41;;;;;;;44.28;30.70;;;;;;;3.85;70.52;95563.06;4153102;28;20497;-56
2022/11/27 09:12:45;;;;;;;47.75;31.48;;;;;;;4.03;71.45;95563.69;4153502;28;20344;-56
2022/11/27 09:14:47;;;;;;;47.08;32.15;;;;;;;4.22;70.76;95563.34;4145836;28;20223;-56
2022/11/27 09:16:48;;;;;;;50.60;31.30;;;;;;;4.39;69.80;95554.44;4162118;28;20612;-55
2022/11/27 09:18:52;;;;;;;52.28;34.28;;;;;;;4.54;69.05;95557.81;4163266;28;20092;-55
2022/11/27 09:20:59;;;;;;;49.65;33.28;;;;;;;4.70;69.49;95555.88;4150540;28;20112;-53
2022/11/27 09:23:01;;;;;;;55.45;31.95;;;;;;;4.80;68.15;95548.31;4159927;28;20057;-55
2022/11/27 09:25:03;;;;;;;50.78;31.27;;;;;;;4.69;67.49;95546.44;4146718;28;20406;-55
2022/11/27 09:27:05;;;;;;;50.05;31.85;;;;;;;4.53;68.57;95544.00;4146914;28;20056;-57
2022/11/27 09:29:07;;;;;;;51.58;32.53;;;;;;;4.60;68.94;95541.81;4158676;28;20100;-56
2022/11/27 09:31:11;;;;;;;50.78;31.10;;;;;;;4.71;68.65;95536.75;4162847;28;20064;-55
2022/11/27 09:33:13;;;;;;;45.28;30.00;;;;;;;4.87;68.04;95536.56;4163222;28;20480;-57
2022/11/27 09:35:15;;;;;;;51.30;31.35;;;;;;;4.76;67.73;95536.47;4163402;28;20195;-57
2022/11/27 09:37:17;;;;;;;46.63;30.80;;;;;;;4.40;68.37;95543.97;4177357;28;20052;-54